Terminal Aerodrome Forecast
Issued by NWS

Home | Current Version | Previous Version | Text Only | Print | Product List | Glossary On
Versions: 1 2 3 4 5 6 7 8 9 10 11 12 13 14
443
FTUS45 KVEF 031720
TAFBIH
TAF
KBIH 031720Z 0318/0418 36011KT P6SM SCT250
     FM040300 34008KT P6SM SCT250=

USA.gov is the U.S. government's official web portal to all federal, state and local government web resources and services.